Time;durP1;ratioP1;P1;durP2;ratioP2;P2;SDS_P1;SDS_P2;PMS_P1;PMS_P2;Temp;Humidity;BMP_temperature;BMP_pressure;BME280_temperature;BME280_humidity;BME280_pressure;Samples;Min_cycle;Max_cycle;Signal;HPM_P1;HPM_P2
2021/08/27 00:01:33;;;;;;;9.77;3.10;;;;;;;15.09;100.00;100272.78;5055333;28;20051;-71
2021/08/27 00:04:17;;;;;;;5.18;2.60;;;;;;;15.04;100.00;100269.75;5055255;28;20094;-70
2021/08/27 00:07:01;;;;;;;9.55;3.28;;;;;;;15.05;100.00;100279.47;5055263;28;20047;-70
2021/08/27 00:09:45;;;;;;;9.75;2.78;;;;;;;15.02;100.00;100266.41;5054918;28;20056;-70
2021/08/27 00:12:29;;;;;;;3.17;2.53;;;;;;;15.01;100.00;100265.56;5054888;28;20514;-70
2021/08/27 00:15:13;;;;;;;5.68;2.78;;;;;;;15.02;100.00;100261.03;5056389;28;20051;-70
2021/08/27 00:17:57;;;;;;;6.63;2.58;;;;;;;15.01;100.00;100267.41;5040901;28;20098;-70
2021/08/27 00:20:41;;;;;;;6.05;2.83;;;;;;;14.99;100.00;100266.75;5040575;28;20052;-69
2021/08/27 00:23:25;;;;;;;6.97;3.03;;;;;;;14.99;100.00;100258.69;5055671;28;20059;-69
2021/08/27 00:26:08;;;;;;;8.82;3.28;;;;;;;14.96;100.00;100256.34;5054879;28;20174;-70
2021/08/27 00:28:52;;;;;;;8.15;3.03;;;;;;;14.92;100.00;100260.41;5054748;28;20473;-69
2021/08/27 00:31:36;;;;;;;3.42;2.80;;;;;;;14.90;100.00;100267.78;5054587;28;20155;-70
2021/08/27 00:34:20;;;;;;;6.03;2.80;;;;;;;14.86;100.00;100261.91;5054767;28;20399;-70
2021/08/27 00:37:05;;;;;;;8.15;2.65;;;;;;;14.83;100.00;100262.28;5039518;28;20052;-70
2021/08/27 00:39:48;;;;;;;4.03;2.67;;;;;;;14.83;100.00;100261.41;5054587;28;20098;-70
2021/08/27 00:42:33;;;;;;;5.72;2.58;;;;;;;14.82;100.00;100262.44;5054603;28;20482;-70
2021/08/27 00:45:17;;;;;;;7.68;2.97;;;;;;;14.77;100.00;100262.94;5040434;28;20043;-70
2021/08/27 00:48:01;;;;;;;6.63;3.80;;;;;;;14.74;100.00;100262.44;5040229;28;20048;-69
2021/08/27 00:50:47;;;;;;;6.57;2.78;;;;;;;14.71;100.00;100271.66;5054362;28;20526;-70
2021/08/27 00:53:32;;;;;;;6.97;2.88;;;;;;;14.72;100.00;100272.50;5054099;28;20129;-69
2021/08/27 00:56:16;;;;;;;4.43;2.78;;;;;;;14.70;100.00;100278.03;5054021;28;20139;-70
2021/08/27 00:59:00;;;;;;;3.90;2.53;;;;;;;14.70;100.00;100274.53;5040129;28;20487;-70
2021/08/27 01:01:44;;;;;;;7.20;2.80;;;;;;;14.68;100.00;100277.38;5054216;28;20056;-70
2021/08/27 01:04:30;;;;;;;4.60;2.88;;;;;;;14.66;100.00;100267.81;5053868;28;20052;-70
2021/08/27 01:07:30;;;;;;;7.35;2.95;;;;;;;14.64;100.00;100270.69;5040152;28;20064;-70
2021/08/27 01:10:22;;;;;;;7.25;2.95;;;;;;;14.63;100.00;100281.56;5053725;28;20142;-69
2021/08/27 01:13:20;;;;;;;11.95;3.40;;;;;;;14.64;100.00;100272.53;5039834;28;20048;-69
2021/08/27 01:16:09;;;;;;;9.35;2.60;;;;;;;14.64;100.00;100278.72;5054233;28;20056;-70
2021/08/27 01:18:54;;;;;;;5.53;2.72;;;;;;;14.68;100.00;100284.59;5053861;28;20120;-69
2021/08/27 01:21:44;;;;;;;4.50;2.70;;;;;;;14.65;100.00;100276.88;5053577;28;20056;-70
2021/08/27 01:24:29;;;;;;;5.03;2.97;;;;;;;14.59;100.00;100280.25;5054753;28;20063;-70
2021/08/27 01:27:16;;;;;;;5.53;2.88;;;;;;;14.57;100.00;100282.28;5053746;28;20407;-70
2021/08/27 01:30:17;;;;;;;3.95;2.50;;;;;;;14.56;100.00;100285.94;5053297;28;20052;-69
2021/08/27 01:33:12;;;;;;;3.00;2.38;;;;;;;14.57;100.00;100288.47;5053612;28;20528;-69
2021/08/27 01:35:59;;;;;;;;;;;;;;;14.60;100.00;100292.66;5053996;28;20171;-70
2021/08/27 01:38:44;;;;;;;6.53;3.03;;;;;;;14.64;100.00;100289.47;5039100;28;19924;-70
2021/08/27 01:41:30;;;;;;;5.13;3.03;;;;;;;14.69;100.00;100288.97;5053167;28;20086;-70
2021/08/27 01:44:14;;;;;;;6.82;2.92;;;;;;;14.71;100.00;100292.31;5039331;28;20132;-70
2021/08/27 01:47:00;;;;;;;6.75;2.78;;;;;;;14.74;100.00;100297.31;5039105;28;20043;-70
2021/08/27 01:49:45;;;;;;;6.07;3.15;;;;;;;14.74;100.00;100294.66;5054034;28;20462;-70
2021/08/27 01:52:30;;;;;;;7.20;3.30;;;;;;;14.76;100.00;100297.97;5053502;28;20079;-70
2021/08/27 01:55:14;;;;;;;6.47;3.17;;;;;;;14.75;100.00;100301.69;5053335;28;20039;-70
2021/08/27 01:58:00;;;;;;;7.93;3.15;;;;;;;14.74;100.00;100300.00;5053022;28;20055;-70
2021/08/27 02:00:44;;;;;;;6.45;3.20;;;;;;;14.74;100.00;100305.38;5052820;28;20047;-70
2021/08/27 02:03:30;;;;;;;8.10;3.53;;;;;;;14.76;100.00;100300.66;5053208;28;20044;-69
2021/08/27 02:06:15;;;;;;;5.50;3.10;;;;;;;14.79;100.00;100298.50;5053723;28;20049;-70
2021/08/27 02:08:59;;;;;;;5.47;3.20;;;;;;;14.78;100.00;100306.72;5038608;28;20415;-71
2021/08/27 02:11:44;;;;;;;4.57;3.17;;;;;;;14.75;100.00;100304.38;5052911;28;20111;-69
2021/08/27 02:14:28;;;;;;;6.28;3.60;;;;;;;14.70;100.00;100301.38;5052559;28;20048;-70
2021/08/27 02:17:12;;;;;;;5.50;3.47;;;;;;;14.69;100.00;100294.31;5052755;28;20052;-70
2021/08/27 02:19:58;;;;;;;8.82;4.03;;;;;;;14.69;100.00;100297.00;5052656;28;20410;-70
2021/08/27 02:22:45;;;;;;;8.20;3.58;;;;;;;14.65;100.00;100301.03;5038861;28;20099;-70
2021/08/27 02:25:31;;;;;;;7.05;4.03;;;;;;;14.60;100.00;100303.38;5052647;28;20052;-70
2021/08/27 02:28:18;;;;;;;14.32;4.10;;;;;;;14.52;100.00;100303.38;5052562;28;20103;-70
2021/08/27 02:31:01;;;;;;;13.90;4.10;;;;;;;14.47;100.00;100303.06;5052394;28;20047;-70
2021/08/27 02:33:47;;;;;;;9.35;4.25;;;;;;;14.41;100.00;100304.59;5038490;28;20126;-70
2021/08/27 02:36:30;;;;;;;8.23;4.43;;;;;;;14.36;100.00;100300.69;5052401;28;20502;-70
2021/08/27 02:39:16;;;;;;;7.82;5.07;;;;;;;14.32;100.00;100304.72;5038304;28;20114;-70
2021/08/27 02:42:00;;;;;;;7.32;4.30;;;;;;;14.29;100.00;100299.72;5052135;28;20122;-70
2021/08/27 02:44:44;;;;;;;8.60;5.10;;;;;;;14.25;100.00;100309.91;5052109;28;20133;-70
2021/08/27 02:47:28;;;;;;;7.22;4.05;;;;;;;14.25;100.00;100312.59;5052052;28;20040;-70
2021/08/27 02:50:13;;;;;;;5.95;4.30;;;;;;;14.24;100.00;100318.97;5052138;28;20123;-70
2021/08/27 02:53:10;;;;;;;10.80;4.40;;;;;;;14.23;100.00;100316.44;5038233;28;20068;-69
2021/08/27 02:55:58;;;;;;;8.25;4.47;;;;;;;14.25;100.00;100319.78;5038141;28;20457;-68
2021/08/27 02:58:47;;;;;;;8.60;5.20;;;;;;;14.31;100.00;100314.63;5052145;28;20067;-69
2021/08/27 03:01:36;;;;;;;7.47;4.57;;;;;;;14.32;100.00;100315.44;5051697;28;20078;-70
2021/08/27 03:04:46;;;;;;;8.15;4.40;;;;;;;14.33;100.00;100322.50;5052175;28;20102;-69
2021/08/27 03:07:31;;;;;;;7.13;4.22;;;;;;;14.33;100.00;100317.13;5052977;28;20075;-70
2021/08/27 03:10:28;;;;;;;6.78;4.20;;;;;;;14.34;100.00;100318.81;5037685;28;20059;-70
2021/08/27 03:13:14;;;;;;;9.48;4.60;;;;;;;14.31;100.00;100314.63;5038279;28;20055;-70
2021/08/27 03:16:02;;;;;;;8.65;4.20;;;;;;;14.28;100.00;100308.75;5051905;28;20178;-70
2021/08/27 03:18:54;;;;;;;6.20;3.85;;;;;;;14.23;100.00;100305.72;5051983;28;20048;-70
2021/08/27 03:21:39;;;;;;;8.98;4.43;;;;;;;14.19;100.00;100304.38;5053085;28;20506;-70
2021/08/27 03:24:35;;;;;;;8.15;4.65;;;;;;;14.19;100.00;100307.06;5052998;28;20052;-69
2021/08/27 03:27:22;;;;;;;7.40;4.47;;;;;;;14.13;100.00;100299.66;5037876;28;20150;-70
2021/08/27 03:30:11;;;;;;;9.13;4.63;;;;;;;14.15;100.00;100297.63;5037781;28;20549;-70
2021/08/27 03:33:09;;;;;;;8.88;4.20;;;;;;;14.13;100.00;100291.59;5037975;28;20056;-70
2021/08/27 03:35:54;;;;;;;9.40;5.00;;;;;;;14.07;100.00;100290.44;5051841;28;20557;-70
2021/08/27 03:38:38;;;;;;;6.25;4.65;;;;;;;14.01;100.00;100295.63;5051690;28;20087;-70
2021/08/27 03:41:26;;;;;;;9.82;4.65;;;;;;;13.98;100.00;100298.63;5051861;28;20052;-70
2021/08/27 03:44:11;;;;;;;7.85;4.38;;;;;;;13.95;100.00;100307.84;5051521;28;20048;-70
2021/08/27 03:46:55;;;;;;;9.45;4.93;;;;;;;13.94;100.00;100300.81;5051749;28;20060;-70
2021/08/27 03:49:40;;;;;;;6.60;4.32;;;;;;;13.97;100.00;100313.88;5051435;28;20105;-69
2021/08/27 03:52:24;;;;;;;9.75;5.05;;;;;;;13.98;100.00;100309.34;5051478;28;20047;-69
2021/08/27 03:55:13;;;;;;;8.68;4.32;;;;;;;14.00;100.00;100299.31;5051705;28;20098;-70
2021/08/27 03:57:57;;;;;;;7.30;4.13;;;;;;;14.01;100.00;100301.81;5051411;28;20048;-70
2021/08/27 04:00:41;;;;;;;5.00;4.45;;;;;;;14.07;100.00;100300.31;5051345;28;20047;-70
2021/08/27 04:03:25;;;;;;;7.65;4.60;;;;;;;14.09;100.00;100309.03;5051626;28;20099;-68
2021/08/27 04:06:10;;;;;;;7.05;4.75;;;;;;;14.09;100.00;100303.69;5051493;28;20186;-70
2021/08/27 04:08:54;;;;;;;6.70;4.70;;;;;;;14.11;100.00;100307.03;5051772;28;20094;-70
2021/08/27 04:11:38;;;;;;;8.27;4.65;;;;;;;14.09;100.00;100311.72;5051273;28;20111;-70
2021/08/27 04:14:22;;;;;;;9.82;5.25;;;;;;;14.05;100.00;100318.41;5056147;28;20071;-71
2021/08/27 04:17:06;;;;;;;9.13;4.40;;;;;;;14.00;100.00;100320.75;5054689;28;20056;-69
2021/08/27 04:19:50;;;;;;;7.47;5.05;;;;;;;13.97;100.00;100323.75;5040876;28;20095;-70
2021/08/27 04:22:34;;;;;;;8.98;5.20;;;;;;;13.96;100.00;100328.28;5040638;28;20047;-71
2021/08/27 04:25:18;;;;;;;6.72;4.70;;;;;;;13.95;100.00;100325.75;5055967;28;20052;-70
2021/08/27 04:28:02;;;;;;;6.90;4.30;;;;;;;13.94;100.00;100329.44;5054579;28;20063;-71
2021/08/27 04:30:46;;;;;;;10.20;5.28;;;;;;;13.91;100.00;100337.81;5054836;28;20047;-70
2021/08/27 04:33:30;;;;;;;5.80;4.65;;;;;;;13.89;100.00;100339.81;5040553;28;20083;-69
2021/08/27 04:36:15;;;;;;;8.15;4.18;;;;;;;13.87;100.00;100336.47;5054455;28;20118;-71
2021/08/27 04:38:58;;;;;;;7.30;4.60;;;;;;;13.82;100.00;100336.09;5054552;28;20055;-71
2021/08/27 04:41:42;;;;;;;;;;;;;;;13.75;100.00;100337.78;5055098;28;20048;-71
2021/08/27 04:44:26;;;;;;;6.15;4.35;;;;;;;13.71;100.00;100341.75;5040345;28;20046;-71
2021/08/27 04:47:10;;;;;;;9.35;5.10;;;;;;;13.64;100.00;100344.25;5054524;28;20048;-70
2021/08/27 04:49:54;;;;;;;9.80;4.75;;;;;;;13.61;100.00;100341.06;5054386;28;20052;-71
2021/08/27 04:52:38;;;;;;;7.75;4.57;;;;;;;13.53;100.00;100351.72;5055406;28;20090;-70
2021/08/27 04:55:22;;;;;;;6.57;4.22;;;;;;;13.45;100.00;100346.38;5040321;28;20598;-70
2021/08/27 04:58:06;;;;;;;5.47;4.18;;;;;;;13.38;100.00;100351.50;5054993;28;20051;-71
2021/08/27 05:00:50;;;;;;;6.82;4.53;;;;;;;13.32;100.00;100356.66;5039995;28;20044;-70
2021/08/27 05:03:35;;;;;;;6.32;4.40;;;;;;;13.29;100.00;100373.03;5040453;28;20476;-70
2021/08/27 05:06:19;;;;;;;6.05;4.72;;;;;;;13.25;100.00;100369.00;5053944;28;20128;-71
2021/08/27 05:09:03;;;;;;;6.80;4.55;;;;;;;13.23;100.00;100368.31;5053883;28;20040;-71
2021/08/27 05:11:46;;;;;;;7.38;4.90;;;;;;;13.22;100.00;100367.50;5107540;23;20055;-65
2021/08/27 05:14:30;;;;;;;5.63;4.43;;;;;;;13.20;100.00;100365.97;5114636;28;20516;-65
2021/08/27 05:17:14;;;;;;;6.35;4.75;;;;;;;13.19;100.00;100369.63;5114551;28;20627;-65
2021/08/27 05:19:58;;;;;;;8.48;4.70;;;;;;;13.14;100.00;100375.47;5115516;28;20042;-65
2021/08/27 05:22:42;;;;;;;8.02;5.10;;;;;;;13.10;100.00;100373.25;5079236;28;20063;-65
2021/08/27 05:25:26;;;;;;;7.30;4.97;;;;;;;13.07;100.00;100379.75;5095006;28;20146;-65
2021/08/27 05:28:10;;;;;;;6.25;4.53;;;;;;;13.00;100.00;100377.88;5079681;28;20565;-65
2021/08/27 05:30:54;;;;;;;6.97;5.20;;;;;;;12.99;100.00;100385.09;5093667;28;20096;-65
2021/08/27 05:33:38;;;;;;;10.00;4.85;;;;;;;12.96;100.00;100387.22;5094551;28;20046;-65
2021/08/27 05:36:22;;;;;;;6.55;4.72;;;;;;;12.97;100.00;100383.56;5094100;28;20050;-65
2021/08/27 05:39:05;;;;;;;9.55;5.80;;;;;;;12.99;100.00;100394.94;5094757;28;20046;-65
2021/08/27 05:41:49;;;;;;;9.57;5.47;;;;;;;13.02;100.00;100402.63;5079315;28;20042;-64
2021/08/27 05:44:33;;;;;;;10.00;5.97;;;;;;;13.00;100.00;100399.28;5094457;28;20460;-65
2021/08/27 05:47:17;;;;;;;8.13;5.78;;;;;;;13.05;100.00;100407.69;5093615;28;20102;-65
2021/08/27 05:50:02;;;;;;;9.13;5.28;;;;;;;13.09;100.00;100414.41;5093242;28;20051;-64
2021/08/27 05:52:46;;;;;;;11.82;5.97;;;;;;;13.13;100.00;100415.75;5079173;28;20157;-65
2021/08/27 05:55:29;;;;;;;10.48;6.43;;;;;;;13.18;100.00;100410.78;5094479;28;20066;-65
2021/08/27 05:58:13;;;;;;;9.35;6.05;;;;;;;13.26;100.00;100410.84;5093100;28;20062;-65
2021/08/27 06:00:57;;;;;;;11.68;6.28;;;;;;;13.32;100.00;100420.91;5093261;28;20113;-65
2021/08/27 06:03:41;;;;;;;8.10;5.70;;;;;;;13.38;100.00;100415.75;5094367;28;20046;-65
2021/08/27 06:06:27;;;;;;;12.52;7.65;;;;;;;13.46;100.00;100415.81;5094223;28;20414;-65
2021/08/27 06:09:11;;;;;;;10.63;5.47;;;;;;;13.54;100.00;100420.38;5093780;28;20096;-65
2021/08/27 06:11:54;;;;;;;6.55;5.65;;;;;;;13.62;100.00;100423.09;5093775;28;20110;-65
2021/08/27 06:14:38;;;;;;;12.02;7.22;;;;;;;13.71;100.00;100422.13;5093357;28;20521;-65
2021/08/27 06:17:22;;;;;;;11.73;7.25;;;;;;;13.80;100.00;100423.84;5093839;28;20509;-65
2021/08/27 06:20:07;;;;;;;10.95;7.28;;;;;;;13.88;100.00;100430.09;5093941;28;20135;-65
2021/08/27 06:22:51;;;;;;;11.85;7.55;;;;;;;13.94;100.00;100434.81;5078664;28;20108;-63
2021/08/27 06:25:35;;;;;;;16.27;7.60;;;;;;;14.01;100.00;100430.50;5092828;28;20071;-65
2021/08/27 06:28:19;;;;;;;13.43;7.82;;;;;;;14.11;100.00;100425.84;5093915;28;20093;-65
2021/08/27 06:31:03;;;;;;;9.85;6.80;;;;;;;14.20;100.00;100427.53;5093544;28;20054;-65
2021/08/27 06:33:47;;;;;;;10.45;6.88;;;;;;;14.29;100.00;100420.38;5093707;28;20418;-65
2021/08/27 06:36:31;;;;;;;11.07;6.57;;;;;;;14.35;100.00;100427.75;5093206;28;20050;-65
2021/08/27 06:39:15;;;;;;;8.65;6.82;;;;;;;14.41;100.00;100429.78;5093458;28;20410;-65
2021/08/27 06:41:59;;;;;;;;;;;;;;;14.47;100.00;100429.13;5092831;28;20097;-65
2021/08/27 06:44:43;;;;;;;8.70;6.68;;;;;;;14.55;100.00;100429.13;5092710;28;19919;-65
2021/08/27 06:47:27;;;;;;;8.93;5.93;;;;;;;14.63;100.00;100437.19;5092314;28;20516;-65
2021/08/27 06:50:11;;;;;;;10.52;5.47;;;;;;;14.68;100.00;100437.56;5092303;28;20562;-65
2021/08/27 06:52:55;;;;;;;8.02;5.35;;;;;;;14.76;100.00;100438.38;5093531;28;20043;-65
2021/08/27 06:55:39;;;;;;;7.35;5.80;;;;;;;14.80;100.00;100433.53;5092549;28;20558;-65
2021/08/27 06:58:24;;;;;;;7.93;5.68;;;;;;;14.88;100.00;100433.53;5093424;28;20575;-65
2021/08/27 07:01:08;;;;;;;9.63;5.03;;;;;;;14.93;100.00;100444.59;5092284;28;20130;-65
2021/08/27 07:03:52;;;;;;;6.00;4.70;;;;;;;15.00;100.00;100445.63;5093185;28;20043;-65
2021/08/27 07:06:35;;;;;;;6.55;4.85;;;;;;;15.04;100.00;100446.94;5093407;28;20051;-65
2021/08/27 07:09:19;;;;;;;6.88;4.03;;;;;;;15.12;100.00;100455.00;5092301;28;20042;-65
2021/08/27 07:12:03;;;;;;;4.70;3.45;;;;;;;15.17;100.00;100447.25;5092938;28;20054;-65
2021/08/27 07:14:50;;;;;;;7.15;3.60;;;;;;;15.26;100.00;100454.31;5091999;28;20117;-65
2021/08/27 07:17:34;;;;;;;7.80;3.70;;;;;;;15.36;100.00;100461.22;5092217;28;20051;-66
2021/08/27 07:20:19;;;;;;;6.47;3.70;;;;;;;15.47;100.00;100455.50;5092013;28;20055;-65
2021/08/27 07:23:04;;;;;;;6.47;3.78;;;;;;;15.54;100.00;100455.66;5092982;28;20046;-65
2021/08/27 07:25:48;;;;;;;4.95;3.47;;;;;;;15.57;98.18;100450.78;5092467;28;20101;-65
2021/08/27 07:28:33;;;;;;;5.95;3.25;;;;;;;15.63;95.80;100454.63;5091985;28;20047;-65
2021/08/27 07:31:17;;;;;;;5.55;3.35;;;;;;;15.72;95.85;100455.28;5092074;28;20189;-65
2021/08/27 07:34:01;;;;;;;5.13;3.08;;;;;;;15.78;95.41;100459.94;5092173;28;20059;-65
2021/08/27 07:36:45;;;;;;;6.28;2.80;;;;;;;15.83;90.85;100462.13;5092272;28;20063;-65
2021/08/27 07:39:29;;;;;;;5.55;3.47;;;;;;;15.90;94.10;100468.47;5092956;28;20414;-65
2021/08/27 07:42:13;;;;;;;3.75;2.88;;;;;;;16.05;92.14;100462.22;5093073;28;20413;-65
2021/08/27 07:44:57;;;;;;;;;;;;;;;16.15;91.31;100468.22;5092372;28;20527;-65
2021/08/27 07:47:42;;;;;;;3.13;2.40;;;;;;;16.24;88.42;100477.94;5096424;28;19964;-65
2021/08/27 07:50:26;;;;;;;3.70;2.42;;;;;;;16.32;86.00;100474.34;5096477;28;20047;-65
2021/08/27 07:53:10;;;;;;;4.93;2.67;;;;;;;16.40;83.71;100475.16;5096775;28;20047;-65
2021/08/27 07:55:54;;;;;;;6.15;2.88;;;;;;;16.41;83.56;100474.19;5095440;28;20051;-64
2021/08/27 07:58:38;;;;;;;6.85;2.78;;;;;;;16.45;81.72;100470.13;5081155;28;20047;-65
2021/08/27 08:01:22;;;;;;;4.30;2.78;;;;;;;16.50;83.31;100462.34;5095579;28;20513;-65
2021/08/27 08:04:06;;;;;;;3.15;2.55;;;;;;;16.58;83.34;100464.16;5095344;28;20047;-65
2021/08/27 08:06:49;;;;;;;5.93;2.55;;;;;;;16.72;81.55;100461.56;5095615;28;20088;-65
2021/08/27 08:09:33;;;;;;;5.65;2.63;;;;;;;16.77;81.01;100469.91;5096525;28;20127;-65
2021/08/27 08:12:17;;;;;;;5.22;2.63;;;;;;;16.86;80.93;100468.84;5080728;28;20139;-65
2021/08/27 08:15:01;;;;;;;6.13;2.67;;;;;;;16.86;81.03;100473.38;5081152;28;20055;-65
2021/08/27 08:17:45;;;;;;;;;;;;;;;16.91;80.92;100479.91;5095593;28;20055;-65
2021/08/27 08:20:29;;;;;;;5.28;2.63;;;;;;;16.99;79.33;100473.63;5096247;28;19965;-65
2021/08/27 08:23:14;;;;;;;4.38;2.63;;;;;;;17.07;79.76;100474.41;5095000;28;20043;-65
2021/08/27 08:25:58;;;;;;;5.18;2.85;;;;;;;17.15;81.92;100471.66;5095231;28;20139;-65
2021/08/27 08:28:42;;;;;;;6.25;2.80;;;;;;;17.29;79.72;100470.84;5094913;28;20043;-65
2021/08/27 08:31:26;;;;;;;5.30;2.28;;;;;;;17.44;78.56;100469.06;5095178;28;20414;-65
2021/08/27 08:34:10;;;;;;;4.68;2.30;;;;;;;17.59;77.43;100477.19;5094896;28;20086;-65
2021/08/27 08:36:54;;;;;;;2.80;2.20;;;;;;;17.66;75.25;100465.47;5094664;28;20109;-65
2021/08/27 08:39:38;;;;;;;7.40;2.00;;;;;;;17.91;70.66;100466.84;5095690;28;20047;-65
2021/08/27 08:42:22;;;;;;;2.67;1.70;;;;;;;18.14;68.96;100467.56;5095544;28;20043;-65
2021/08/27 08:45:06;;;;;;;7.70;2.20;;;;;;;18.36;66.89;100465.81;5094864;28;20043;-65
2021/08/27 08:47:51;;;;;;;5.43;2.25;;;;;;;18.60;68.13;100472.56;5080356;28;20555;-65
2021/08/27 08:50:36;;;;;;;7.68;2.00;;;;;;;18.75;67.67;100467.09;5095528;28;20113;-65
2021/08/27 08:53:22;;;;;;;5.88;2.20;;;;;;;18.85;68.43;100462.22;5094688;28;20414;-65
2021/08/27 08:56:09;;;;;;;4.85;2.53;;;;;;;19.05;68.96;100468.66;5094762;28;20505;-65
2021/08/27 08:58:57;;;;;;;7.03;2.53;;;;;;;19.39;64.63;100466.09;5094740;28;20051;-65
2021/08/27 09:01:41;;;;;;;3.55;2.10;;;;;;;19.74;62.81;100459.69;5094297;28;20047;-65
2021/08/27 09:04:27;;;;;;;8.82;2.10;;;;;;;20.01;61.42;100466.94;5095791;28;20051;-65
2021/08/27 09:07:11;;;;;;;5.80;2.10;;;;;;;20.08;62.38;100468.66;5095339;28;20047;-65
2021/08/27 09:09:56;;;;;;;5.50;2.50;;;;;;;20.00;61.71;100473.38;5094438;28;20127;-65
2021/08/27 09:12:40;;;;;;;7.90;2.55;;;;;;;19.60;62.13;100468.75;5094059;28;20051;-65
2021/08/27 09:15:24;;;;;;;7.00;2.08;;;;;;;19.47;64.03;100479.44;5095237;28;20421;-65
2021/08/27 09:18:09;;;;;;;;;;;;;;;19.24;65.68;100481.53;5095253;28;20047;-65
2021/08/27 09:20:53;;;;;;;3.80;2.80;;;;;;;19.24;64.92;100484.25;5093977;28;20393;-65
2021/08/27 09:23:37;;;;;;;7.72;3.20;;;;;;;19.03;67.13;100486.94;5093804;28;20079;-65
2021/08/27 09:26:32;;;;;;;6.93;2.75;;;;;;;18.91;68.07;100489.31;5094188;28;20058;-65
2021/08/27 09:29:40;;;;;;;5.03;2.20;;;;;;;19.06;67.11;100491.94;5093754;28;20043;-65
2021/08/27 09:32:29;;;;;;;6.40;2.03;;;;;;;19.16;65.12;100492.44;5094534;28;20073;-65
2021/08/27 09:35:16;;;;;;;5.25;2.17;;;;;;;19.34;64.59;100500.97;5079301;28;20474;-66
2021/08/27 09:38:00;;;;;;;6.13;2.42;;;;;;;19.56;63.42;100492.66;5079429;28;20047;-66
2021/08/27 09:40:48;;;;;;;5.47;2.03;;;;;;;19.83;62.45;100493.66;5093584;28;20421;-65
2021/08/27 09:43:42;;;;;;;3.75;2.40;;;;;;;20.03;60.77;100494.63;5094072;28;20109;-66
2021/08/27 09:46:34;;;;;;;4.00;2.33;;;;;;;20.39;60.31;100496.09;5094595;28;20039;-66
2021/08/27 09:49:32;;;;;;;5.00;2.38;;;;;;;20.59;58.87;100501.59;5093257;28;20051;-66
2021/08/27 09:52:16;;;;;;;4.32;2.63;;;;;;;20.97;59.91;100486.53;5094322;28;20127;-65
2021/08/27 09:55:07;;;;;;;3.95;2.40;;;;;;;21.76;57.11;100489.09;5093514;28;20047;-66
2021/08/27 09:58:01;;;;;;;4.10;2.00;;;;;;;22.56;54.99;100479.50;5094043;28;20101;-65
2021/08/27 10:00:47;;;;;;;5.37;2.67;;;;;;;23.60;49.72;100469.78;5093111;28;20101;-66
2021/08/27 10:03:32;;;;;;;2.97;1.90;;;;;;;24.06;46.93;100473.75;5093387;28;20051;-66
2021/08/27 10:06:32;;;;;;;4.40;2.05;;;;;;;24.51;46.22;100472.41;5093288;28;20047;-66
2021/08/27 10:09:16;;;;;;;4.70;1.88;;;;;;;27.15;40.81;100467.03;5094409;28;20078;-66
2021/08/27 10:12:00;;;;;;;3.95;2.35;;;;;;;29.76;35.72;100461.13;5092801;28;20089;-66
2021/08/27 10:14:44;;;;;;;8.60;2.60;;;;;;;29.81;34.40;100466.66;5078417;28;20086;-66
2021/08/27 10:17:28;;;;;;;4.20;2.33;;;;;;;28.63;37.15;100461.34;5092995;28;20055;-66
2021/08/27 10:20:13;;;;;;;5.05;2.58;;;;;;;27.19;38.97;100468.22;5092932;28;20067;-66
2021/08/27 10:22:57;;;;;;;5.45;2.67;;;;;;;26.25;39.58;100469.81;5092977;28;20108;-66
2021/08/27 10:25:41;;;;;;;4.25;2.47;;;;;;;25.11;42.61;100476.81;5093642;28;20051;-64
2021/08/27 10:28:29;;;;;;;3.13;2.15;;;;;;;24.60;43.53;100468.34;5092944;28;20047;-66
2021/08/27 10:31:14;;;;;;;5.50;1.90;;;;;;;23.98;45.17;100470.50;5092568;28;20051;-66
2021/08/27 10:33:58;;;;;;;4.53;2.10;;;;;;;23.64;46.92;100466.41;5092764;28;20406;-66
2021/08/27 10:36:46;;;;;;;;;;;;;;;23.10;47.62;100479.78;5094193;28;20124;-66
2021/08/27 10:39:31;;;;;;;3.13;2.30;;;;;;;22.67;48.67;100473.38;5093700;28;19922;-66
2021/08/27 10:42:48;;;;;;;5.22;2.40;;;;;;;22.23;51.19;100478.78;5093181;28;20055;-66
2021/08/27 10:45:33;;;;;;;4.45;2.72;;;;;;;21.73;52.38;100471.38;5078368;28;20109;-65
2021/08/27 10:48:20;;;;;;;;;;;;;;;21.42;53.52;100473.00;5093698;28;20063;-66
2021/08/27 10:51:31;;;;;;;4.47;2.60;;;;;;;20.97;55.55;100478.41;5092206;28;20381;-66
2021/08/27 10:54:17;;;;;;;4.53;2.95;;;;;;;20.90;56.41;100481.09;5092112;28;20070;-66
2021/08/27 10:57:01;;;;;;;7.18;2.80;;;;;;;20.68;56.55;100476.00;5093293;28;20047;-66
2021/08/27 10:59:45;;;;;;;4.72;2.80;;;;;;;20.80;56.78;100477.06;5092348;28;20059;-66
2021/08/27 11:02:57;;;;;;;4.40;2.75;;;;;;;20.88;54.96;100477.75;5092550;28;20051;-66
2021/08/27 11:05:48;;;;;;;5.00;2.55;;;;;;;21.12;55.55;100473.63;5092117;28;20097;-66
2021/08/27 11:08:32;;;;;;;5.60;2.10;;;;;;;21.29;54.15;100471.13;5092172;28;20105;-66
2021/08/27 11:11:16;;;;;;;;;;;;;;;21.79;55.27;100466.97;5115740;22;20047;-70
2021/08/27 11:14:15;;;;;;;4.43;2.25;;;;;;;22.68;51.85;100461.44;5052225;28;20396;-71
2021/08/27 11:17:03;;;;;;;6.05;2.30;;;;;;;23.09;51.12;100461.81;5053030;28;20079;-71
2021/08/27 11:19:56;;;;;;;6.80;2.97;;;;;;;23.13;51.72;100463.06;5038050;28;20118;-70
2021/08/27 11:22:52;;;;;;;5.68;2.40;;;;;;;23.05;52.29;100470.63;5056115;28;20044;-69
2021/08/27 11:25:41;;;;;;;3.20;2.53;;;;;;;22.90;51.95;100460.06;5055666;28;20102;-68
2021/08/27 11:28:28;;;;;;;3.70;2.60;;;;;;;22.86;51.63;100464.28;5041916;28;20056;-70
2021/08/27 11:31:12;;;;;;;5.05;2.63;;;;;;;22.84;51.39;100452.75;5042045;28;20095;-71
2021/08/27 11:33:56;;;;;;;6.20;2.88;;;;;;;22.95;50.26;100460.25;5041590;28;20128;-71
2021/08/27 11:36:40;;;;;;;;;;;;;;;23.10;49.83;100462.63;5057137;28;20047;-71
2021/08/27 11:39:25;;;;;;;4.78;2.45;;;;;;;23.15;48.90;100473.72;5041445;28;20474;-70
2021/08/27 11:42:09;;;;;;;5.50;2.47;;;;;;;23.07;49.13;100477.53;5041654;28;20091;-70
2021/08/27 11:45:18;;;;;;;3.25;2.30;;;;;;;22.91;50.40;100475.31;5055431;28;20098;-71
2021/08/27 11:48:07;;;;;;;7.53;3.05;;;;;;;22.89;51.01;100477.44;5041662;28;20044;-71
2021/08/27 11:50:53;;;;;;;3.15;2.65;;;;;;;22.68;50.96;100475.03;5055204;28;20044;-70
2021/08/27 11:53:37;;;;;;;6.32;3.10;;;;;;;22.67;52.02;100481.53;5055274;28;20207;-71
2021/08/27 11:56:24;;;;;;;4.35;3.03;;;;;;;22.46;50.79;100481.84;5055265;28;20052;-70
2021/08/27 11:59:08;;;;;;;4.30;2.72;;;;;;;22.35;50.07;100482.47;5056297;28;20051;-70
2021/08/27 12:01:56;;;;;;;4.72;2.90;;;;;;;22.08;51.96;100472.75;5055260;28;20514;-70
2021/08/27 12:04:40;;;;;;;5.78;2.70;;;;;;;21.78;52.42;100481.59;5056612;28;20094;-71
2021/08/27 12:07:27;;;;;;;;;;;;;;;21.57;51.54;100474.47;5041596;28;20502;-70
2021/08/27 12:10:13;;;;;;;5.40;3.15;;;;;;;21.51;52.53;100474.47;5055320;28;19962;-70
2021/08/27 12:12:57;;;;;;;5.22;2.83;;;;;;;21.57;52.99;100482.59;5054718;28;20051;-71
2021/08/27 12:15:44;;;;;;;5.45;2.78;;;;;;;21.78;53.08;100485.13;5041026;28;20128;-70
2021/08/27 12:18:34;;;;;;;4.40;3.10;;;;;;;21.98;51.57;100476.97;5054812;28;20052;-71
2021/08/27 12:21:27;;;;;;;4.38;2.90;;;;;;;22.23;50.03;100473.34;5054972;28;20044;-70
2021/08/27 12:24:12;;;;;;;3.55;2.40;;;;;;;22.38;49.94;100478.47;5040948;28;20071;-71
2021/08/27 12:26:58;;;;;;;3.97;2.80;;;;;;;22.55;50.48;100469.69;5054901;28;20048;-70
2021/08/27 12:29:41;;;;;;;4.07;3.10;;;;;;;22.35;47.69;100463.47;5054632;28;20083;-69
2021/08/27 12:32:25;;;;;;;3.97;2.40;;;;;;;22.87;48.20;100467.81;5053837;28;20465;-71
2021/08/27 12:35:11;;;;;;;4.22;2.28;;;;;;;23.71;45.46;100463.63;5040685;28;20383;-70
2021/08/27 12:37:56;;;;;;;4.80;2.80;;;;;;;24.47;43.48;100463.00;5054532;28;20087;-71
2021/08/27 12:40:40;;;;;;;4.30;2.85;;;;;;;24.79;42.04;100467.22;5040644;28;20052;-71
2021/08/27 12:43:24;;;;;;;4.15;2.83;;;;;;;25.39;41.02;100453.31;5054241;28;20103;-71
2021/08/27 12:46:08;;;;;;;3.03;2.60;;;;;;;26.13;41.38;100447.16;5054590;28;20128;-70
2021/08/27 12:49:20;;;;;;;3.63;2.67;;;;;;;27.03;39.76;100458.03;5054513;28;20099;-71